sensor_id;sensor_type;location;lat;lon;timestamp;pressure;altitude;pressure_sealevel;temperature;humidity
8756;BME280;4414;42.670;23.228;2022-09-13T00:01:08;44925.53;;;-137.01;100.00
8756;BME280;4414;42.670;23.228;2022-09-13T00:03:35;44935.09;;;-137.01;100.00
8756;BME280;4414;42.670;23.228;2022-09-13T00:06:10;44915.97;;;-137.01;100.00
8756;BME280;4414;42.670;23.228;2022-09-13T00:08:37;44942.75;;;-137.01;100.00
8756;BME280;4414;42.670;23.228;2022-09-13T00:11:05;44915.97;;;-137.01;100.00
8756;BME280;4414;42.670;23.228;2022-09-13T00:13:32;44933.19;;;-137.01;100.00
8756;BME280;4414;42.670;23.228;2022-09-13T00:15:59;44912.16;;;-137.01;100.00
8756;BME280;4414;42.670;23.228;2022-09-13T00:18:28;44946.59;;;-137.01;100.00
8756;BME280;4414;42.670;23.228;2022-09-13T00:21:03;44937.03;;;-137.01;100.00
8756;BME280;4414;42.670;23.228;2022-09-13T00:23:30;44937.03;;;-137.01;100.00
8756;BME280;4414;42.670;23.228;2022-09-13T00:26:07;44914.06;;;-137.01;100.00
8756;BME280;4414;42.670;23.228;2022-09-13T00:28:34;44921.72;;;-137.01;100.00
8756;BME280;4414;42.670;23.228;2022-09-13T00:31:01;44917.91;;;-137.01;100.00
8756;BME280;4414;42.670;23.228;2022-09-13T00:33:28;44917.91;;;-137.01;100.00
8756;BME280;4414;42.670;23.228;2022-09-13T00:35:55;44923.63;;;-137.01;100.00
8756;BME280;4414;42.670;23.228;2022-09-13T00:38:22;44921.72;;;-137.01;100.00
8756;BME280;4414;42.670;23.228;2022-09-13T00:40:49;44908.34;;;-137.01;100.00
8756;BME280;4414;42.670;23.228;2022-09-13T00:43:20;44940.84;;;-137.01;100.00
8756;BME280;4414;42.670;23.228;2022-09-13T00:45:47;44950.41;;;-137.01;100.00
8756;BME280;4414;42.670;23.228;2022-09-13T00:48:17;44933.19;;;-137.01;100.00
8756;BME280;4414;42.670;23.228;2022-09-13T00:50:49;44935.09;;;-137.01;100.00
8756;BME280;4414;42.670;23.228;2022-09-13T00:53:19;44919.81;;;-137.01;100.00
8756;BME280;4414;42.670;23.228;2022-09-13T00:55:50;44915.97;;;-137.01;100.00
8756;BME280;4414;42.670;23.228;2022-09-13T00:58:22;44925.53;;;-137.01;100.00
8756;BME280;4414;42.670;23.228;2022-09-13T01:00:52;44937.03;;;-137.01;100.00
8756;BME280;4414;42.670;23.228;2022-09-13T01:03:20;44919.81;;;-137.01;100.00
8756;BME280;4414;42.670;23.228;2022-09-13T01:05:51;44919.81;;;-137.01;100.00
8756;BME280;4414;42.670;23.228;2022-09-13T01:08:20;44923.63;;;-137.01;100.00
8756;BME280;4414;42.670;23.228;2022-09-13T01:10:48;44933.19;;;-137.01;100.00
8756;BME280;4414;42.670;23.228;2022-09-13T01:13:18;44927.47;;;-137.01;100.00
8756;BME280;4414;42.670;23.228;2022-09-13T01:15:46;44950.41;;;-137.01;100.00
8756;BME280;4414;42.670;23.228;2022-09-13T01:18:14;44921.72;;;-137.01;100.00
8756;BME280;4414;42.670;23.228;2022-09-13T01:20:57;44910.25;;;-137.01;100.00
8756;BME280;4414;42.670;23.228;2022-09-13T01:24:06;44923.63;;;-137.01;100.00
8756;BME280;4414;42.670;23.228;2022-09-13T01:27:18;44921.72;;;-137.01;100.00
8756;BME280;4414;42.670;23.228;2022-09-13T01:30:06;44914.06;;;-137.01;100.00
8756;BME280;4414;42.670;23.228;2022-09-13T01:35:35;44923.63;;;-137.01;100.00
8756;BME280;4414;42.670;23.228;2022-09-13T01:38:10;44915.97;;;-137.01;100.00
8756;BME280;4414;42.670;23.228;2022-09-13T01:40:54;44952.31;;;-137.01;100.00
8756;BME280;4414;42.670;23.228;2022-09-13T01:43:34;44917.91;;;-137.01;100.00
8756;BME280;4414;42.670;23.228;2022-09-13T01:46:08;44944.66;;;-137.01;100.00
8756;BME280;4414;42.670;23.228;2022-09-13T01:48:51;44933.19;;;-137.01;100.00
8756;BME280;4414;42.670;23.228;2022-09-13T01:51:25;44933.19;;;-137.01;100.00
8756;BME280;4414;42.670;23.228;2022-09-13T01:54:00;44910.25;;;-137.01;100.00
8756;BME280;4414;42.670;23.228;2022-09-13T01:56:34;44942.75;;;-137.01;100.00
8756;BME280;4414;42.670;23.228;2022-09-13T01:59:10;44921.72;;;-137.01;100.00
8756;BME280;4414;42.670;23.228;2022-09-13T02:01:43;44958.06;;;-137.01;100.00
8756;BME280;4414;42.670;23.228;2022-09-13T02:04:17;44925.53;;;-137.01;100.00
8756;BME280;4414;42.670;23.228;2022-09-13T02:06:50;44927.47;;;-137.01;100.00
8756;BME280;4414;42.670;23.228;2022-09-13T02:09:21;44938.94;;;-137.01;99.91
8756;BME280;4414;42.670;23.228;2022-09-13T02:11:53;44961.88;;;-137.01;100.00
8756;BME280;4414;42.670;23.228;2022-09-13T02:14:25;44942.75;;;-137.01;100.00
8756;BME280;4414;42.670;23.228;2022-09-13T02:16:56;44948.50;;;-137.01;100.00
8756;BME280;4414;42.670;23.228;2022-09-13T02:19:32;44940.84;;;-137.01;100.00
8756;BME280;4414;42.670;23.228;2022-09-13T02:22:02;44946.59;;;-137.01;100.00
8756;BME280;4414;42.670;23.228;2022-09-13T02:24:32;44944.66;;;-137.01;100.00
8756;BME280;4414;42.670;23.228;2022-09-13T02:27:04;44931.28;;;-137.01;100.00
8756;BME280;4414;42.670;23.228;2022-09-13T02:29:35;44956.16;;;-137.01;100.00
8756;BME280;4414;42.670;23.228;2022-09-13T02:32:09;44937.03;;;-137.01;100.00
8756;BME280;4414;42.670;23.228;2022-09-13T02:34:39;44929.38;;;-137.01;100.00
8756;BME280;4414;42.670;23.228;2022-09-13T02:37:09;44923.63;;;-137.01;100.00
8756;BME280;4414;42.670;23.228;2022-09-13T02:39:52;44915.97;;;-137.01;100.00
8756;BME280;4414;42.670;23.228;2022-09-13T02:42:24;44915.97;;;-137.01;100.00
8756;BME280;4414;42.670;23.228;2022-09-13T02:44:53;44923.63;;;-137.01;100.00
8756;BME280;4414;42.670;23.228;2022-09-13T02:47:41;44937.03;;;-137.01;100.00
8756;BME280;4414;42.670;23.228;2022-09-13T02:50:28;44944.66;;;-137.01;100.00
8756;BME280;4414;42.670;23.228;2022-09-13T02:53:02;44946.59;;;-137.01;100.00
8756;BME280;4414;42.670;23.228;2022-09-13T02:55:38;44933.19;;;-137.01;100.00
8756;BME280;4414;42.670;23.228;2022-09-13T02:58:11;44940.84;;;-137.01;100.00
8756;BME280;4414;42.670;23.228;2022-09-13T03:00:39;44925.53;;;-137.01;100.00
8756;BME280;4414;42.670;23.228;2022-09-13T03:03:11;44948.50;;;-137.01;100.00
8756;BME280;4414;42.670;23.228;2022-09-13T03:05:38;44915.97;;;-137.01;100.00
8756;BME280;4414;42.670;23.228;2022-09-13T03:08:06;44938.94;;;-137.01;100.00
8756;BME280;4414;42.670;23.228;2022-09-13T03:10:43;44921.72;;;-137.01;100.00
8756;BME280;4414;42.670;23.228;2022-09-13T03:13:30;44914.06;;;-137.01;100.00
8756;BME280;4414;42.670;23.228;2022-09-13T03:16:06;44925.53;;;-137.01;100.00
8756;BME280;4414;42.670;23.228;2022-09-13T03:18:47;44927.47;;;-137.01;100.00
8756;BME280;4414;42.670;23.228;2022-09-13T03:21:26;44956.16;;;-137.01;100.00
8756;BME280;4414;42.670;23.228;2022-09-13T03:24:06;44937.03;;;-137.01;100.00
8756;BME280;4414;42.670;23.228;2022-09-13T03:26:43;44912.16;;;-137.01;100.00
8756;BME280;4414;42.670;23.228;2022-09-13T03:29:23;44944.66;;;-137.01;100.00
8756;BME280;4414;42.670;23.228;2022-09-13T03:32:00;44940.84;;;-137.01;100.00
8756;BME280;4414;42.670;23.228;2022-09-13T03:34:36;44927.47;;;-137.01;100.00
8756;BME280;4414;42.670;23.228;2022-09-13T03:37:13;44929.38;;;-137.01;100.00
8756;BME280;4414;42.670;23.228;2022-09-13T03:39:47;44944.66;;;-137.01;100.00
8756;BME280;4414;42.670;23.228;2022-09-13T03:42:20;44937.03;;;-137.01;100.00
8756;BME280;4414;42.670;23.228;2022-09-13T03:44:50;44923.63;;;-137.01;100.00
8756;BME280;4414;42.670;23.228;2022-09-13T03:47:21;44914.06;;;-137.01;100.00
8756;BME280;4414;42.670;23.228;2022-09-13T03:49:51;44940.84;;;-137.01;100.00
8756;BME280;4414;42.670;23.228;2022-09-13T03:52:18;44925.53;;;-137.01;100.00
8756;BME280;4414;42.670;23.228;2022-09-13T03:54:45;44937.03;;;-137.01;100.00
8756;BME280;4414;42.670;23.228;2022-09-13T03:57:13;44925.53;;;-137.01;100.00
8756;BME280;4414;42.670;23.228;2022-09-13T03:59:44;44938.94;;;-137.01;100.00
8756;BME280;4414;42.670;23.228;2022-09-13T04:02:12;44961.88;;;-137.01;100.00
8756;BME280;4414;42.670;23.228;2022-09-13T04:04:39;44914.06;;;-137.01;100.00
8756;BME280;4414;42.670;23.228;2022-09-13T04:07:10;44942.75;;;-137.01;100.00
8756;BME280;4414;42.670;23.228;2022-09-13T04:09:37;44937.03;;;-137.01;100.00
8756;BME280;4414;42.670;23.228;2022-09-13T04:12:04;44929.38;;;-137.01;100.00
8756;BME280;4414;42.670;23.228;2022-09-13T04:14:31;44919.81;;;-137.01;100.00
8756;BME280;4414;42.670;23.228;2022-09-13T04:16:58;44925.53;;;-137.01;100.00
8756;BME280;4414;42.670;23.228;2022-09-13T04:19:25;44925.53;;;-137.01;100.00
8756;BME280;4414;42.670;23.228;2022-09-13T04:21:54;44944.66;;;-137.01;100.00
8756;BME280;4414;42.670;23.228;2022-09-13T04:24:23;44937.03;;;-137.01;100.00
8756;BME280;4414;42.670;23.228;2022-09-13T04:26:51;44933.19;;;-137.01;100.00
8756;BME280;4414;42.670;23.228;2022-09-13T04:29:19;44940.84;;;-137.01;100.00
8756;BME280;4414;42.670;23.228;2022-09-13T04:31:46;44908.34;;;-137.01;100.00
8756;BME280;4414;42.670;23.228;2022-09-13T04:34:13;44940.84;;;-137.01;100.00
8756;BME280;4414;42.670;23.228;2022-09-13T04:36:40;44950.41;;;-137.01;100.00
8756;BME280;4414;42.670;23.228;2022-09-13T04:39:07;44921.72;;;-137.01;100.00
8756;BME280;4414;42.670;23.228;2022-09-13T04:41:35;44925.53;;;-137.01;100.00
8756;BME280;4414;42.670;23.228;2022-09-13T04:44:02;44929.38;;;-137.01;100.00
8756;BME280;4414;42.670;23.228;2022-09-13T04:46:29;44931.28;;;-137.01;100.00
8756;BME280;4414;42.670;23.228;2022-09-13T04:48:55;44921.72;;;-137.01;99.19
8756;BME280;4414;42.670;23.228;2022-09-13T04:51:23;44942.75;;;-137.01;98.29
8756;BME280;4414;42.670;23.228;2022-09-13T04:53:53;44942.75;;;-137.01;98.04
8756;BME280;4414;42.670;23.228;2022-09-13T04:56:22;44942.75;;;-137.01;96.74
8756;BME280;4414;42.670;23.228;2022-09-13T04:58:52;44927.47;;;-137.01;95.69
8756;BME280;4414;42.670;23.228;2022-09-13T05:01:19;44917.91;;;-137.01;94.39
8756;BME280;4414;42.670;23.228;2022-09-13T05:03:46;44933.19;;;-137.01;93.99
8756;BME280;4414;42.670;23.228;2022-09-13T05:06:14;44929.38;;;-137.01;92.50
8756;BME280;4414;42.670;23.228;2022-09-13T05:08:42;44942.75;;;-137.01;89.11
8756;BME280;4414;42.670;23.228;2022-09-13T05:11:09;44927.47;;;-137.01;89.62
8756;BME280;4414;42.670;23.228;2022-09-13T05:13:36;44948.50;;;-137.01;89.57
8756;BME280;4414;42.670;23.228;2022-09-13T05:16:06;44910.25;;;-137.01;87.07
8756;BME280;4414;42.670;23.228;2022-09-13T05:18:34;44942.75;;;-137.01;86.94
8756;BME280;4414;42.670;23.228;2022-09-13T05:21:03;44927.47;;;-137.01;86.62
8756;BME280;4414;42.670;23.228;2022-09-13T05:23:30;44917.91;;;-137.01;86.17
8756;BME280;4414;42.670;23.228;2022-09-13T05:25:58;44946.59;;;-137.01;87.91
8756;BME280;4414;42.670;23.228;2022-09-13T05:28:27;44942.75;;;-137.01;87.19
8756;BME280;4414;42.670;23.228;2022-09-13T05:30:55;44929.38;;;-137.01;86.79
8756;BME280;4414;42.670;23.228;2022-09-13T05:33:24;44958.06;;;-137.01;87.56
8756;BME280;4414;42.670;23.228;2022-09-13T05:35:51;44927.47;;;-137.01;88.68
8756;BME280;4414;42.670;23.228;2022-09-13T05:38:17;44948.50;;;-137.01;88.62
8756;BME280;4414;42.670;23.228;2022-09-13T05:40:44;44935.09;;;-137.01;88.34
8756;BME280;4414;42.670;23.228;2022-09-13T05:43:11;44927.47;;;-137.01;88.03
8756;BME280;4414;42.670;23.228;2022-09-13T05:45:39;44935.09;;;-137.01;87.83
8756;BME280;4414;42.670;23.228;2022-09-13T05:48:05;44946.59;;;-137.01;88.65
8756;BME280;4414;42.670;23.228;2022-09-13T05:50:37;44942.75;;;-137.01;87.70
8756;BME280;4414;42.670;23.228;2022-09-13T05:53:04;44931.28;;;-137.01;86.60
8756;BME280;4414;42.670;23.228;2022-09-13T05:55:31;44944.66;;;-137.01;87.56
8756;BME280;4414;42.670;23.228;2022-09-13T05:58:00;44931.28;;;-137.01;87.99
8756;BME280;4414;42.670;23.228;2022-09-13T06:00:27;44948.50;;;-137.01;86.29
8756;BME280;4414;42.670;23.228;2022-09-13T06:02:56;44944.66;;;-137.01;86.21
8756;BME280;4414;42.670;23.228;2022-09-13T06:05:22;44933.19;;;-137.01;85.98
8756;BME280;4414;42.670;23.228;2022-09-13T06:07:51;44923.63;;;-137.01;86.07
8756;BME280;4414;42.670;23.228;2022-09-13T06:10:17;44940.84;;;-137.01;85.38
8756;BME280;4414;42.670;23.228;2022-09-13T06:12:44;44929.38;;;-137.01;84.72
8756;BME280;4414;42.670;23.228;2022-09-13T06:15:11;44933.19;;;-137.01;84.07
8756;BME280;4414;42.670;23.228;2022-09-13T06:17:38;44935.09;;;-137.01;83.70
8756;BME280;4414;42.670;23.228;2022-09-13T06:20:06;44954.25;;;-137.01;84.76
8756;BME280;4414;42.670;23.228;2022-09-13T06:22:33;44921.72;;;-137.01;84.89
8756;BME280;4414;42.670;23.228;2022-09-13T06:25:05;44952.31;;;-137.01;83.11
8756;BME280;4414;42.670;23.228;2022-09-13T06:27:31;44915.97;;;-137.01;84.51
8756;BME280;4414;42.670;23.228;2022-09-13T06:29:58;44933.19;;;-137.01;85.06
8756;BME280;4414;42.670;23.228;2022-09-13T06:32:25;44921.72;;;-137.01;84.08
8756;BME280;4414;42.670;23.228;2022-09-13T06:34:52;44937.03;;;-137.01;80.67
8756;BME280;4414;42.670;23.228;2022-09-13T06:37:18;44944.66;;;-137.01;82.02
8756;BME280;4414;42.670;23.228;2022-09-13T06:39:46;44942.75;;;-137.01;80.85
8756;BME280;4414;42.670;23.228;2022-09-13T06:42:14;44923.63;;;-137.01;79.19
8756;BME280;4414;42.670;23.228;2022-09-13T06:44:41;44944.66;;;-137.01;80.30
8756;BME280;4414;42.670;23.228;2022-09-13T06:47:10;44940.84;;;-137.01;81.43
8756;BME280;4414;42.670;23.228;2022-09-13T06:49:37;44946.59;;;-137.01;82.91
8756;BME280;4414;42.670;23.228;2022-09-13T06:52:04;44946.59;;;-137.01;80.79
8756;BME280;4414;42.670;23.228;2022-09-13T06:56:57;44944.66;;;-137.01;81.16
8756;BME280;4414;42.670;23.228;2022-09-13T06:59:25;44944.66;;;-137.01;82.33
8756;BME280;4414;42.670;23.228;2022-09-13T07:01:52;44948.50;;;-137.01;82.40
8756;BME280;4414;42.670;23.228;2022-09-13T07:04:19;44940.84;;;-137.01;80.48
8756;BME280;4414;42.670;23.228;2022-09-13T07:06:48;44942.75;;;-137.01;81.25
8756;BME280;4414;42.670;23.228;2022-09-13T07:09:16;44906.41;;;-137.01;82.36
8756;BME280;4414;42.670;23.228;2022-09-13T07:11:44;44946.59;;;-137.01;81.09
8756;BME280;4414;42.670;23.228;2022-09-13T07:14:13;44937.03;;;-137.01;80.96
8756;BME280;4414;42.670;23.228;2022-09-13T07:16:42;44952.31;;;-137.01;81.44
8756;BME280;4414;42.670;23.228;2022-09-13T07:19:12;44940.84;;;-137.01;81.45
8756;BME280;4414;42.670;23.228;2022-09-13T07:21:39;44952.31;;;-137.01;81.26
8756;BME280;4414;42.670;23.228;2022-09-13T07:24:06;44935.09;;;-137.01;82.14
8756;BME280;4414;42.670;23.228;2022-09-13T07:26:33;44929.38;;;-137.01;81.21
8756;BME280;4414;42.670;23.228;2022-09-13T07:29:02;44921.72;;;-137.01;77.93
8756;BME280;4414;42.670;23.228;2022-09-13T07:31:30;44944.66;;;-137.01;76.72
8756;BME280;4414;42.670;23.228;2022-09-13T07:33:59;44952.31;;;-137.01;75.56
8756;BME280;4414;42.670;23.228;2022-09-13T07:36:30;44952.31;;;-137.01;76.52
8756;BME280;4414;42.670;23.228;2022-09-13T07:38:57;44963.81;;;-137.01;77.35
8756;BME280;4414;42.670;23.228;2022-09-13T07:41:25;44963.81;;;-137.01;77.65
8756;BME280;4414;42.670;23.228;2022-09-13T07:43:53;44952.31;;;-137.01;79.01
8756;BME280;4414;42.670;23.228;2022-09-13T07:46:21;44919.81;;;-137.01;77.89
8756;BME280;4414;42.670;23.228;2022-09-13T07:48:51;44931.28;;;-137.01;75.40
8756;BME280;4414;42.670;23.228;2022-09-13T07:51:20;44952.31;;;-137.01;74.44
8756;BME280;4414;42.670;23.228;2022-09-13T07:53:49;44950.41;;;-137.01;72.90
8756;BME280;4414;42.670;23.228;2022-09-13T07:56:19;44931.28;;;-137.01;74.68
8756;BME280;4414;42.670;23.228;2022-09-13T07:58:47;44959.97;;;-137.01;71.61
8756;BME280;4414;42.670;23.228;2022-09-13T08:01:16;44944.66;;;-137.01;70.91
8756;BME280;4414;42.670;23.228;2022-09-13T08:03:47;44944.66;;;-137.01;69.88
8756;BME280;4414;42.670;23.228;2022-09-13T08:06:16;44952.31;;;-137.01;70.61
8756;BME280;4414;42.670;23.228;2022-09-13T08:08:44;44944.66;;;-137.01;69.32
8756;BME280;4414;42.670;23.228;2022-09-13T08:11:15;44965.72;;;-137.01;71.93
8756;BME280;4414;42.670;23.228;2022-09-13T08:13:43;44956.16;;;-137.01;73.29
8756;BME280;4414;42.670;23.228;2022-09-13T08:16:09;44935.09;;;-137.01;74.31
8756;BME280;4414;42.670;23.228;2022-09-13T08:18:36;44963.81;;;-137.01;71.68
8756;BME280;4414;42.670;23.228;2022-09-13T08:21:03;44944.66;;;-137.01;68.74
8756;BME280;4414;42.670;23.228;2022-09-13T08:23:30;44942.75;;;-137.01;68.84
8756;BME280;4414;42.670;23.228;2022-09-13T08:26:02;44952.31;;;-137.01;70.92
8756;BME280;4414;42.670;23.228;2022-09-13T08:28:30;44961.88;;;-137.01;67.08
8756;BME280;4414;42.670;23.228;2022-09-13T08:31:02;44952.31;;;-137.01;69.38
8756;BME280;4414;42.670;23.228;2022-09-13T08:33:29;44925.53;;;-137.01;66.72
8756;BME280;4414;42.670;23.228;2022-09-13T08:35:56;44929.38;;;-137.01;66.07
8756;BME280;4414;42.670;23.228;2022-09-13T08:38:23;44933.19;;;-137.01;65.74
8756;BME280;4414;42.670;23.228;2022-09-13T08:40:54;44971.44;;;-137.01;65.74
8756;BME280;4414;42.670;23.228;2022-09-13T08:43:29;44946.59;;;-137.01;64.73
8756;BME280;4414;42.670;23.228;2022-09-13T08:46:01;44963.81;;;-137.01;65.15
8756;BME280;4414;42.670;23.228;2022-09-13T08:48:33;44929.38;;;-137.01;61.64
8756;BME280;4414;42.670;23.228;2022-09-13T08:51:03;44942.75;;;-137.01;62.11
8756;BME280;4414;42.670;23.228;2022-09-13T08:53:40;44958.06;;;-137.01;61.95
8756;BME280;4414;42.670;23.228;2022-09-13T08:56:10;44954.25;;;-137.01;61.09
8756;BME280;4414;42.670;23.228;2022-09-13T08:59:14;44938.94;;;-137.01;58.71
8756;BME280;4414;42.670;23.228;2022-09-13T09:01:51;44952.31;;;-137.01;59.12
8756;BME280;4414;42.670;23.228;2022-09-13T09:04:30;44944.66;;;-137.01;56.34
8756;BME280;4414;42.670;23.228;2022-09-13T09:07:03;44981.00;;;-137.01;57.62
8756;BME280;4414;42.670;23.228;2022-09-13T09:09:35;44969.53;;;-137.01;59.12
8756;BME280;4414;42.670;23.228;2022-09-13T09:12:12;44961.88;;;-137.01;59.54
8756;BME280;4414;42.670;23.228;2022-09-13T09:14:44;44961.88;;;-137.01;60.23
8756;BME280;4414;42.670;23.228;2022-09-13T09:17:15;44954.25;;;-137.01;59.16
8756;BME280;4414;42.670;23.228;2022-09-13T09:19:45;44944.66;;;-137.01;58.68
8756;BME280;4414;42.670;23.228;2022-09-13T09:22:17;44944.66;;;-137.01;58.25
8756;BME280;4414;42.670;23.228;2022-09-13T09:24:48;44946.59;;;-137.01;59.20
8756;BME280;4414;42.670;23.228;2022-09-13T09:27:17;44963.81;;;-137.01;59.39
8756;BME280;4414;42.670;23.228;2022-09-13T09:29:46;44952.31;;;-137.01;56.95
8756;BME280;4414;42.670;23.228;2022-09-13T09:32:26;44937.03;;;-137.01;55.27
8756;BME280;4414;42.670;23.228;2022-09-13T09:35:08;44963.81;;;-137.01;54.08
8756;BME280;4414;42.670;23.228;2022-09-13T09:37:38;44954.25;;;-137.01;54.46
8756;BME280;4414;42.670;23.228;2022-09-13T09:40:11;44954.25;;;-137.01;56.02
8756;BME280;4414;42.670;23.228;2022-09-13T09:42:42;44956.16;;;-137.01;54.95
8756;BME280;4414;42.670;23.228;2022-09-13T09:45:24;44965.72;;;-137.01;54.23
8756;BME280;4414;42.670;23.228;2022-09-13T09:47:53;44950.41;;;-137.01;56.49
8756;BME280;4414;42.670;23.228;2022-09-13T09:50:22;44958.06;;;-137.01;55.92
8756;BME280;4414;42.670;23.228;2022-09-13T09:52:55;44959.97;;;-137.01;56.65
8756;BME280;4414;42.670;23.228;2022-09-13T09:55:27;44954.25;;;-137.01;57.06
8756;BME280;4414;42.670;23.228;2022-09-13T09:57:56;44982.94;;;-137.01;57.57
8756;BME280;4414;42.670;23.228;2022-09-13T10:00:26;44965.72;;;-137.01;58.42
8756;BME280;4414;42.670;23.228;2022-09-13T10:02:57;44948.50;;;-137.01;58.99
8756;BME280;4414;42.670;23.228;2022-09-13T10:05:26;44948.50;;;-137.01;56.78
8756;BME280;4414;42.670;23.228;2022-09-13T10:07:56;44963.81;;;-137.01;52.05
8756;BME280;4414;42.670;23.228;2022-09-13T10:10:28;44986.75;;;-137.01;55.35
8756;BME280;4414;42.670;23.228;2022-09-13T10:13:00;44963.81;;;-137.01;52.80
8756;BME280;4414;42.670;23.228;2022-09-13T10:15:29;44963.81;;;-137.01;51.04
8756;BME280;4414;42.670;23.228;2022-09-13T10:18:13;44959.97;;;-137.01;52.40
8756;BME280;4414;42.670;23.228;2022-09-13T10:20:41;44944.66;;;-137.01;55.14
8756;BME280;4414;42.670;23.228;2022-09-13T10:23:19;44940.84;;;-137.01;53.16
8756;BME280;4414;42.670;23.228;2022-09-13T10:25:59;44977.19;;;-137.01;54.66
8756;BME280;4414;42.670;23.228;2022-09-13T10:28:29;44971.44;;;-137.01;53.51
8756;BME280;4414;42.670;23.228;2022-09-13T10:31:01;44954.25;;;-137.01;55.53
8756;BME280;4414;42.670;23.228;2022-09-13T10:33:31;44956.16;;;-137.01;53.86
8756;BME280;4414;42.670;23.228;2022-09-13T10:36:01;44967.63;;;-137.01;52.52
8756;BME280;4414;42.670;23.228;2022-09-13T10:38:31;44959.97;;;-137.01;51.60
8756;BME280;4414;42.670;23.228;2022-09-13T10:41:02;44940.84;;;-137.01;50.62
8756;BME280;4414;42.670;23.228;2022-09-13T10:43:31;44969.53;;;-137.01;52.33
8756;BME280;4414;42.670;23.228;2022-09-13T10:46:01;44940.84;;;-137.01;51.65
8756;BME280;4414;42.670;23.228;2022-09-13T10:48:30;44963.81;;;-137.01;51.70
8756;BME280;4414;42.670;23.228;2022-09-13T10:51:19;44959.97;;;-137.01;52.19
8756;BME280;4414;42.670;23.228;2022-09-13T10:53:47;44954.25;;;-137.01;53.50
8756;BME280;4414;42.670;23.228;2022-09-13T10:56:20;44969.53;;;-137.01;54.50
8756;BME280;4414;42.670;23.228;2022-09-13T10:58:47;44959.97;;;-137.01;54.14
8756;BME280;4414;42.670;23.228;2022-09-13T11:01:38;44961.88;;;-137.01;52.52
8756;BME280;4414;42.670;23.228;2022-09-13T11:04:25;44948.50;;;-137.01;50.96
8756;BME280;4414;42.670;23.228;2022-09-13T11:07:10;44929.38;;;-137.01;52.46
8756;BME280;4414;42.670;23.228;2022-09-13T11:09:45;44961.88;;;-137.01;49.78
8756;BME280;4414;42.670;23.228;2022-09-13T11:12:18;44952.31;;;-137.01;49.52
8756;BME280;4414;42.670;23.228;2022-09-13T11:14:56;44959.97;;;-137.01;48.69
8756;BME280;4414;42.670;23.228;2022-09-13T11:17:39;44956.16;;;-137.01;48.00
8756;BME280;4414;42.670;23.228;2022-09-13T11:20:21;44942.75;;;-137.01;48.75
8756;BME280;4414;42.670;23.228;2022-09-13T11:23:07;44959.97;;;-137.01;48.65
8756;BME280;4414;42.670;23.228;2022-09-13T11:25:50;44965.72;;;-137.01;48.52
8756;BME280;4414;42.670;23.228;2022-09-13T11:28:26;44959.97;;;-137.01;48.46
8756;BME280;4414;42.670;23.228;2022-09-13T11:31:08;44948.50;;;-137.01;47.49
8756;BME280;4414;42.670;23.228;2022-09-13T11:33:50;44963.81;;;-137.01;48.29
8756;BME280;4414;42.670;23.228;2022-09-13T11:36:40;44942.75;;;-137.01;48.67
8756;BME280;4414;42.670;23.228;2022-09-13T11:39:16;44956.16;;;-137.01;46.14
8756;BME280;4414;42.670;23.228;2022-09-13T11:41:51;44950.41;;;-137.01;46.39
8756;BME280;4414;42.670;23.228;2022-09-13T11:44:46;44959.97;;;-137.01;47.75
8756;BME280;4414;42.670;23.228;2022-09-13T11:47:24;44956.16;;;-137.01;45.97
8756;BME280;4414;42.670;23.228;2022-09-13T11:53:02;44975.28;;;-137.01;44.99
8756;BME280;4414;42.670;23.228;2022-09-13T11:55:33;44979.09;;;-137.01;44.84
8756;BME280;4414;42.670;23.228;2022-09-13T11:58:04;44961.88;;;-137.01;45.08
8756;BME280;4414;42.670;23.228;2022-09-13T12:00:40;44994.41;;;-137.01;45.42
8756;BME280;4414;42.670;23.228;2022-09-13T12:03:16;44948.50;;;-137.01;45.19
8756;BME280;4414;42.670;23.228;2022-09-13T12:05:50;44961.88;;;-137.01;46.46
8756;BME280;4414;42.670;23.228;2022-09-13T12:08:21;44963.81;;;-137.01;46.64
8756;BME280;4414;42.670;23.228;2022-09-13T12:10:51;44961.88;;;-137.01;46.72
8756;BME280;4414;42.670;23.228;2022-09-13T12:13:21;44937.03;;;-137.01;44.23
8756;BME280;4414;42.670;23.228;2022-09-13T12:15:52;44981.00;;;-137.01;45.24
8756;BME280;4414;42.670;23.228;2022-09-13T12:18:22;44971.44;;;-137.01;44.25
8756;BME280;4414;42.670;23.228;2022-09-13T12:20:53;44946.59;;;-137.01;47.12
8756;BME280;4414;42.670;23.228;2022-09-13T12:23:26;44963.81;;;-137.01;48.06
8756;BME280;4414;42.670;23.228;2022-09-13T12:25:58;44944.66;;;-137.01;47.92
8756;BME280;4414;42.670;23.228;2022-09-13T12:28:27;44961.88;;;-137.01;47.08
8756;BME280;4414;42.670;23.228;2022-09-13T12:30:59;44961.88;;;-137.01;48.50
8756;BME280;4414;42.670;23.228;2022-09-13T12:33:27;44944.66;;;-137.01;49.07
8756;BME280;4414;42.670;23.228;2022-09-13T12:36:19;45000.13;;;-137.01;49.00
8756;BME280;4414;42.670;23.228;2022-09-13T12:39:26;44967.63;;;-137.01;48.86
8756;BME280;4414;42.670;23.228;2022-09-13T12:42:30;44971.44;;;-137.01;47.94
8756;BME280;4414;42.670;23.228;2022-09-13T12:45:16;44940.84;;;-137.01;49.16
8756;BME280;4414;42.670;23.228;2022-09-13T12:48:03;44971.44;;;-137.01;50.13
8756;BME280;4414;42.670;23.228;2022-09-13T12:50:43;44933.19;;;-137.01;51.49
8756;BME280;4414;42.670;23.228;2022-09-13T12:53:37;44944.66;;;-137.01;52.14
8756;BME280;4414;42.670;23.228;2022-09-13T12:56:27;44965.72;;;-137.01;49.81
8756;BME280;4414;42.670;23.228;2022-09-13T12:59:22;44959.97;;;-137.01;48.46
8756;BME280;4414;42.670;23.228;2022-09-13T13:01:51;44942.75;;;-137.01;49.15
8756;BME280;4414;42.670;23.228;2022-09-13T13:04:21;44948.50;;;-137.01;49.41
8756;BME280;4414;42.670;23.228;2022-09-13T13:06:51;44986.75;;;-137.01;48.95
8756;BME280;4414;42.670;23.228;2022-09-13T13:09:25;44965.72;;;-137.01;49.93
8756;BME280;4414;42.670;23.228;2022-09-13T13:11:54;44944.66;;;-137.01;48.89
8756;BME280;4414;42.670;23.228;2022-09-13T13:14:48;44963.81;;;-137.01;48.02
8756;BME280;4414;42.670;23.228;2022-09-13T13:20:45;44931.28;;;-137.01;48.45
8756;BME280;4414;42.670;23.228;2022-09-13T13:23:25;44921.72;;;-137.01;49.41